createdAt,value
2016-05-09T00:00:06.058Z,0
2016-05-09T00:00:16.059Z,0
2016-05-09T00:00:26.059Z,0
2016-05-09T00:00:36.059Z,0
2016-05-09T00:00:46.059Z,0
2016-05-09T00:00:56.059Z,0
2016-05-09T00:01:06.075Z,0
2016-05-09T00:01:16.078Z,0
2016-05-09T00:01:26.078Z,0
2016-05-09T00:01:36.078Z,0
2016-05-09T00:01:46.078Z,0
2016-05-09T00:01:56.093Z,0
2016-05-09T00:02:06.078Z,0
2016-05-09T00:02:16.097Z,0
2016-05-09T00:02:26.097Z,0
2016-05-09T00:02:36.097Z,0
2016-05-09T00:02:46.097Z,0
2016-05-09T00:02:56.113Z,0
2016-05-09T00:03:06.097Z,0
2016-05-09T00:03:16.115Z,0
2016-05-09T00:03:26.115Z,0
2016-05-09T00:03:36.115Z,0
2016-05-09T00:03:46.115Z,0
2016-05-09T00:03:56.115Z,0
2016-05-09T00:04:06.131Z,0
2016-05-09T00:04:16.134Z,0
2016-05-09T00:04:26.134Z,0
2016-05-09T00:04:36.134Z,0
2016-05-09T00:04:46.134Z,0
2016-05-09T00:04:56.134Z,0
2016-05-09T00:05:06.134Z,0
2016-05-09T00:05:16.136Z,0
2016-05-09T00:05:26.151Z,0
2016-05-09T00:05:36.151Z,0
2016-05-09T00:05:46.151Z,0
2016-05-09T00:05:56.151Z,0
2016-05-09T00:06:06.151Z,0
2016-05-09T00:06:16.154Z,0
2016-05-09T00:06:26.170Z,0
2016-05-09T00:06:36.170Z,0
2016-05-09T00:06:46.185Z,0
2016-05-09T00:06:56.170Z,0
2016-05-09T00:07:06.170Z,0
2016-05-09T00:07:16.173Z,0
2016-05-09T00:07:26.188Z,0
2016-05-09T00:07:36.188Z,0
2016-05-09T00:07:46.188Z,0
2016-05-09T00:07:56.188Z,0
2016-05-09T00:08:06.188Z,0
2016-05-09T00:08:16.207Z,0
2016-05-09T00:08:26.191Z,0
2016-05-09T00:08:36.207Z,0
2016-05-09T00:08:46.207Z,0
2016-05-09T00:08:56.207Z,0
2016-05-09T00:09:06.207Z,0
2016-05-09T00:09:16.209Z,0
2016-05-09T00:09:26.209Z,0
2016-05-09T00:09:36.225Z,0
2016-05-09T00:09:46.225Z,0
2016-05-09T00:09:56.225Z,0
2016-05-09T00:10:06.225Z,0
2016-05-09T00:10:16.228Z,0
2016-05-09T00:10:26.228Z,0
2016-05-09T00:10:36.243Z,0
2016-05-09T00:10:46.243Z,0
2016-05-09T00:10:56.243Z,0
2016-05-09T00:11:06.243Z,0
2016-05-09T00:11:16.245Z,0
2016-05-09T00:11:26.245Z,0
2016-05-09T00:11:36.261Z,0
2016-05-09T00:11:46.261Z,0
2016-05-09T00:11:56.261Z,0
2016-05-09T00:12:06.261Z,0
2016-05-09T00:12:16.264Z,0
2016-05-09T00:12:26.264Z,0
2016-05-09T00:12:36.264Z,0
2016-05-09T00:12:46.264Z,0
2016-05-09T00:12:56.280Z,0
2016-05-09T00:13:06.280Z,0
2016-05-09T00:13:16.283Z,0
2016-05-09T00:13:26.283Z,0
2016-05-09T00:13:36.298Z,0
2016-05-09T00:13:46.298Z,0
2016-05-09T00:13:56.298Z,0
2016-05-09T00:14:06.298Z,0
2016-05-09T00:14:16.301Z,0
2016-05-09T00:14:26.301Z,0
2016-05-09T00:14:36.317Z,0
2016-05-09T00:14:46.317Z,0
2016-05-09T00:14:56.301Z,0
2016-05-09T00:15:06.317Z,0
2016-05-09T00:15:16.319Z,0
2016-05-09T00:15:26.334Z,0
2016-05-09T00:15:36.319Z,0
2016-05-09T00:15:46.319Z,0
2016-05-09T00:15:56.334Z,0
2016-05-09T00:16:06.334Z,0
2016-05-09T00:16:16.337Z,0
2016-05-09T00:16:26.337Z,0
2016-05-09T00:16:36.353Z,0
2016-05-09T00:16:46.337Z,0
2016-05-09T00:16:56.337Z,0
2016-05-09T00:17:06.353Z,0
2016-05-09T00:17:16.355Z,0
2016-05-09T00:17:26.355Z,0
2016-05-09T00:17:36.355Z,0
2016-05-09T00:17:46.355Z,0
2016-05-09T00:17:56.371Z,0
2016-05-09T00:18:06.371Z,0
2016-05-09T00:18:16.389Z,0
2016-05-09T00:18:26.374Z,0
2016-05-09T00:18:36.374Z,0
2016-05-09T00:18:46.374Z,0
2016-05-09T00:18:56.374Z,0
2016-05-09T00:19:06.389Z,0
2016-05-09T00:19:16.392Z,0
2016-05-09T00:19:26.392Z,0
2016-05-09T00:19:36.392Z,0
2016-05-09T00:19:46.392Z,0
2016-05-09T00:19:56.939Z,0
2016-05-09T00:20:06.408Z,0
2016-05-09T00:20:16.411Z,0
2016-05-09T00:20:26.411Z,0
2016-05-09T00:20:36.411Z,0
2016-05-09T00:20:46.411Z,0
2016-05-09T00:20:56.427Z,0
2016-05-09T00:21:06.411Z,0
2016-05-09T00:21:16.414Z,0
2016-05-09T00:21:26.430Z,0
2016-05-09T00:21:36.430Z,0
2016-05-09T00:21:46.430Z,0
2016-05-09T00:21:56.430Z,0
2016-05-09T00:22:06.430Z,0
2016-05-09T00:22:16.447Z,0
2016-05-09T00:22:26.447Z,0
2016-05-09T00:22:36.447Z,0
2016-05-09T00:22:46.447Z,0
2016-05-09T00:22:56.447Z,0
2016-05-09T00:23:06.447Z,0
2016-05-09T00:23:16.450Z,0
2016-05-09T00:23:26.450Z,0
2016-05-09T00:23:36.466Z,0
2016-05-09T00:23:46.466Z,0
2016-05-09T00:23:56.466Z,0
2016-05-09T00:24:06.481Z,0
2016-05-09T00:24:16.468Z,0
2016-05-09T00:24:26.468Z,0
2016-05-09T00:24:36.483Z,0
2016-05-09T00:24:46.483Z,0
2016-05-09T00:24:56.483Z,0
2016-05-09T00:25:06.483Z,0
2016-05-09T00:25:16.502Z,0
2016-05-09T00:25:26.486Z,0
2016-05-09T00:25:36.502Z,0
2016-05-09T00:25:46.502Z,0
2016-05-09T00:25:56.502Z,0
2016-05-09T00:26:06.502Z,0
2016-05-09T00:26:16.504Z,0
2016-05-09T00:26:26.520Z,0
2016-05-09T00:26:36.520Z,0
2016-05-09T00:26:46.520Z,0
2016-05-09T00:26:56.520Z,0
2016-05-09T00:27:06.520Z,0
2016-05-09T00:27:16.539Z,0
2016-05-09T00:27:26.524Z,0
2016-05-09T00:27:36.539Z,0
2016-05-09T00:27:46.539Z,0
2016-05-09T00:27:56.539Z,0
2016-05-09T00:28:06.539Z,0
2016-05-09T00:28:16.541Z,0
2016-05-09T00:28:26.557Z,0
2016-05-09T00:28:36.541Z,0
2016-05-09T00:28:46.541Z,0
2016-05-09T00:28:56.557Z,0
2016-05-09T00:29:06.557Z,0
2016-05-09T00:29:16.560Z,0
2016-05-09T00:29:26.560Z,0
2016-05-09T00:29:36.576Z,0
2016-05-09T00:29:46.576Z,0
2016-05-09T00:29:56.576Z,0
2016-05-09T00:30:06.576Z,0
2016-05-09T00:30:16.579Z,0
2016-05-09T00:30:26.579Z,0
2016-05-09T00:30:36.579Z,0
2016-05-09T00:30:46.594Z,0
2016-05-09T00:30:56.579Z,0
2016-05-09T00:31:06.594Z,0
2016-05-09T00:31:16.596Z,0
2016-05-09T00:31:26.596Z,0
2016-05-09T00:31:36.596Z,0
2016-05-09T00:31:46.596Z,0
2016-05-09T00:31:56.612Z,0
2016-05-09T00:32:06.612Z,0
2016-05-09T00:32:16.615Z,0
2016-05-09T00:32:26.615Z,0
2016-05-09T00:32:36.615Z,0
2016-05-09T00:32:46.630Z,0
2016-05-09T00:32:56.615Z,0
2016-05-09T00:33:06.630Z,0
2016-05-09T00:33:16.633Z,0
2016-05-09T00:33:26.633Z,0
2016-05-09T00:33:36.633Z,0
2016-05-09T00:33:46.633Z,0
2016-05-09T00:33:56.649Z,0
2016-05-09T00:34:06.633Z,0
2016-05-09T00:34:16.651Z,0
2016-05-09T00:34:26.651Z,0
2016-05-09T00:34:36.651Z,0
2016-05-09T00:34:46.651Z,0
2016-05-09T00:34:56.651Z,0
2016-05-09T00:35:06.667Z,0
2016-05-09T00:35:16.670Z,0
2016-05-09T00:35:26.670Z,0
2016-05-09T00:35:36.670Z,0
2016-05-09T00:35:46.670Z,0
2016-05-09T00:35:56.670Z,0
2016-05-09T00:36:06.670Z,0
2016-05-09T00:36:16.673Z,0
2016-05-09T00:36:26.688Z,0
2016-05-09T00:36:36.688Z,0
2016-05-09T00:36:46.688Z,0
2016-05-09T00:36:56.688Z,0
2016-05-09T00:37:06.688Z,0
2016-05-09T00:37:16.706Z,0
2016-05-09T00:37:26.706Z,0
2016-05-09T00:37:36.706Z,0
2016-05-09T00:37:46.706Z,0
2016-05-09T00:37:56.706Z,0
2016-05-09T00:38:06.706Z,0
2016-05-09T00:38:16.725Z,0
2016-05-09T00:38:26.725Z,0
2016-05-09T00:38:36.725Z,0
2016-05-09T00:38:46.725Z,0
2016-05-09T00:38:56.725Z,0
2016-05-09T00:39:06.725Z,0
2016-05-09T00:39:16.728Z,0
2016-05-09T00:39:26.743Z,0
2016-05-09T00:39:36.743Z,0
2016-05-09T00:39:46.743Z,0
2016-05-09T00:39:56.743Z,0
2016-05-09T00:40:06.759Z,0
2016-05-09T00:40:16.762Z,0
2016-05-09T00:40:26.762Z,0
2016-05-09T00:40:36.762Z,0
2016-05-09T00:40:46.762Z,0
2016-05-09T00:40:56.762Z,0
2016-05-09T00:41:06.762Z,0
2016-05-09T00:41:16.764Z,0
2016-05-09T00:41:26.764Z,0
2016-05-09T00:41:36.779Z,0
2016-05-09T00:41:46.779Z,0
2016-05-09T00:41:56.779Z,0
2016-05-09T00:42:06.779Z,0
2016-05-09T00:42:16.782Z,0
2016-05-09T00:42:26.782Z,0
2016-05-09T00:42:36.798Z,0
2016-05-09T00:42:46.798Z,0
2016-05-09T00:42:56.798Z,0
2016-05-09T00:43:06.798Z,0
2016-05-09T00:43:16.801Z,0
2016-05-09T00:43:28.004Z,0
2016-05-09T00:43:36.848Z,0
2016-05-09T00:43:46.817Z,0
2016-05-09T00:43:56.817Z,0
2016-05-09T00:44:06.817Z,0
2016-05-09T00:44:16.960Z,0
2016-05-09T00:44:26.867Z,0
2016-05-09T00:44:36.820Z,0
2016-05-09T00:44:46.835Z,0
2016-05-09T00:44:56.835Z,0
2016-05-09T00:45:06.835Z,0
2016-05-09T00:45:16.836Z,0
2016-05-09T00:45:26.836Z,0
2016-05-09T00:45:36.836Z,0
2016-05-09T00:45:46.836Z,0
2016-05-09T00:45:56.852Z,0
2016-05-09T00:46:06.852Z,0
2016-05-09T00:46:16.872Z,0
2016-05-09T00:46:26.856Z,0
2016-05-09T00:46:36.856Z,0
2016-05-09T00:46:46.872Z,0
2016-05-09T00:46:56.872Z,0
2016-05-09T00:47:06.872Z,0
2016-05-09T00:47:16.874Z,0
2016-05-09T00:47:26.874Z,0
2016-05-09T00:47:36.874Z,0
2016-05-09T00:47:46.874Z,0
2016-05-09T00:47:56.889Z,0
2016-05-09T00:48:06.889Z,0
2016-05-09T00:48:16.892Z,0
2016-05-09T00:48:26.892Z,0
2016-05-09T00:48:36.892Z,0
2016-05-09T00:48:46.892Z,0
2016-05-09T00:48:56.892Z,0
2016-05-09T00:49:06.908Z,0
2016-05-09T00:49:16.910Z,0
2016-05-09T00:49:26.910Z,0
2016-05-09T00:49:36.910Z,0
2016-05-09T00:49:46.910Z,0
2016-05-09T00:49:56.910Z,0
2016-05-09T00:50:06.910Z,0
2016-05-09T00:50:16.945Z,0
2016-05-09T00:50:26.929Z,0
2016-05-09T00:50:36.929Z,0
2016-05-09T00:50:46.929Z,0
2016-05-09T00:50:56.929Z,0
2016-05-09T00:51:06.945Z,0
2016-05-09T00:51:16.947Z,0
2016-05-09T00:51:26.947Z,0
2016-05-09T00:51:36.947Z,0
2016-05-09T00:51:46.947Z,0
2016-05-09T00:51:56.947Z,0
2016-05-09T00:52:06.963Z,0
2016-05-09T00:52:16.966Z,0
2016-05-09T00:52:26.966Z,0
2016-05-09T00:52:36.966Z,0
2016-05-09T00:52:46.966Z,0
2016-05-09T00:52:56.966Z,0
2016-05-09T00:53:06.966Z,0
2016-05-09T00:53:16.968Z,0
2016-05-09T00:53:26.983Z,0
2016-05-09T00:53:36.983Z,0
2016-05-09T00:53:46.983Z,0
2016-05-09T00:53:56.983Z,0
2016-05-09T00:54:06.983Z,0
2016-05-09T00:54:16.986Z,0
2016-05-09T00:54:27.002Z,0
2016-05-09T00:54:37.002Z,0
2016-05-09T00:54:47.002Z,0
2016-05-09T00:54:57.002Z,0
2016-05-09T00:55:07.002Z,0
2016-05-09T00:55:17.005Z,0
2016-05-09T00:55:27.005Z,0
2016-05-09T00:55:37.005Z,0
2016-05-09T00:55:47.021Z,0
2016-05-09T00:55:57.021Z,0
2016-05-09T00:56:07.021Z,0
2016-05-09T00:56:17.023Z,0
2016-05-09T00:56:27.023Z,0
2016-05-09T00:56:37.023Z,0
2016-05-09T00:56:47.023Z,0
2016-05-09T00:56:57.038Z,0
2016-05-09T00:57:07.038Z,0
2016-05-09T00:57:17.041Z,0
2016-05-09T00:57:27.041Z,0
2016-05-09T00:57:37.041Z,0
2016-05-09T00:57:47.057Z,0
2016-05-09T00:57:57.057Z,0
2016-05-09T00:58:07.057Z,0
2016-05-09T00:58:17.060Z,0
2016-05-09T00:58:27.060Z,0
2016-05-09T00:58:37.060Z,0
2016-05-09T00:58:47.075Z,0
2016-05-09T00:58:57.060Z,0
2016-05-09T00:59:07.075Z,0
2016-05-09T00:59:17.078Z,0
2016-05-09T00:59:27.078Z,0
2016-05-09T00:59:37.078Z,0
2016-05-09T00:59:47.078Z,0
2016-05-09T00:59:57.094Z,0
2016-05-09T01:00:07.094Z,0
2016-05-09T01:00:17.096Z,0
2016-05-09T01:00:27.096Z,0
2016-05-09T01:00:37.096Z,0
2016-05-09T01:00:47.096Z,0
2016-05-09T01:00:57.112Z,0
2016-05-09T01:01:07.112Z,0
2016-05-09T01:01:17.115Z,0
2016-05-09T01:01:27.115Z,0
2016-05-09T01:01:37.115Z,0
2016-05-09T01:01:47.115Z,0
2016-05-09T01:01:57.115Z,0
2016-05-09T01:02:07.115Z,0
2016-05-09T01:02:17.133Z,0
2016-05-09T01:02:27.133Z,0
2016-05-09T01:02:37.133Z,0
2016-05-09T01:02:47.133Z,0
2016-05-09T01:02:57.133Z,0
2016-05-09T01:03:07.133Z,0
2016-05-09T01:03:17.151Z,0
2016-05-09T01:03:27.151Z,0
2016-05-09T01:03:37.167Z,0
2016-05-09T01:03:47.151Z,0
2016-05-09T01:03:57.151Z,0
2016-05-09T01:04:07.151Z,0
2016-05-09T01:04:17.170Z,0
2016-05-09T01:04:27.170Z,0
2016-05-09T01:04:37.170Z,0
2016-05-09T01:04:47.185Z,0
2016-05-09T01:04:57.170Z,0
2016-05-09T01:05:07.185Z,0
2016-05-09T01:05:17.188Z,0
2016-05-09T01:05:27.188Z,0
2016-05-09T01:05:37.188Z,0
2016-05-09T01:05:47.188Z,0
2016-05-09T01:05:57.188Z,0
2016-05-09T01:06:07.188Z,0
2016-05-09T01:06:17.206Z,0
2016-05-09T01:06:27.206Z,0
2016-05-09T01:06:37.206Z,0
2016-05-09T01:06:47.206Z,0
2016-05-09T01:06:57.206Z,0
2016-05-09T01:07:07.221Z,0
2016-05-09T01:07:17.209Z,0
2016-05-09T01:07:27.209Z,0
2016-05-09T01:07:37.318Z,0
2016-05-09T01:07:47.224Z,0
2016-05-09T01:07:57.224Z,0
2016-05-09T01:08:07.224Z,0
2016-05-09T01:08:17.226Z,0
2016-05-09T01:08:27.226Z,0
2016-05-09T01:08:37.242Z,0
2016-05-09T01:08:47.242Z,0
2016-05-09T01:08:57.242Z,0
2016-05-09T01:09:07.242Z,0
2016-05-09T01:09:17.246Z,0
2016-05-09T01:09:27.246Z,0
2016-05-09T01:09:37.246Z,0
2016-05-09T01:09:47.246Z,0
2016-05-09T01:09:57.262Z,0
2016-05-09T01:10:07.262Z,0
2016-05-09T01:10:17.265Z,0
2016-05-09T01:10:27.265Z,0
2016-05-09T01:10:37.265Z,0
2016-05-09T01:10:47.280Z,0
2016-05-09T01:10:57.280Z,0
2016-05-09T01:11:07.280Z,0
2016-05-09T01:11:17.282Z,0
2016-05-09T01:11:27.282Z,0
2016-05-09T01:11:37.282Z,0
2016-05-09T01:11:47.298Z,0
2016-05-09T01:11:57.298Z,0
2016-05-09T01:12:07.298Z,0
2016-05-09T01:12:17.300Z,0
2016-05-09T01:12:27.300Z,0
2016-05-09T01:12:37.316Z,0
2016-05-09T01:12:47.300Z,0
2016-05-09T01:12:57.316Z,0
2016-05-09T01:13:07.316Z,0
2016-05-09T01:13:17.319Z,0
2016-05-09T01:13:27.319Z,0
2016-05-09T01:13:37.772Z,0
2016-05-09T01:13:47.319Z,0
2016-05-09T01:13:57.319Z,0
2016-05-09T01:14:07.553Z,0
2016-05-09T01:14:18.149Z,0
2016-05-09T01:14:27.336Z,0
2016-05-09T01:14:37.336Z,0
2016-05-09T01:14:47.336Z,0
2016-05-09T01:14:57.336Z,0
2016-05-09T01:15:07.352Z,0
2016-05-09T01:15:17.356Z,0
2016-05-09T01:15:27.356Z,0
2016-05-09T01:15:37.356Z,0
2016-05-09T01:15:47.356Z,0
2016-05-09T01:15:57.356Z,0
2016-05-09T01:16:07.356Z,0
2016-05-09T01:16:17.374Z,0
2016-05-09T01:16:27.374Z,0
2016-05-09T01:16:37.374Z,0
2016-05-09T01:16:47.374Z,0
2016-05-09T01:16:57.374Z,0
2016-05-09T01:17:07.374Z,0
2016-05-09T01:17:17.376Z,0
2016-05-09T01:17:27.392Z,0
2016-05-09T01:17:37.392Z,0
2016-05-09T01:17:47.392Z,0
2016-05-09T01:17:57.392Z,0
2016-05-09T01:18:07.392Z,0
2016-05-09T01:18:17.395Z,0
2016-05-09T01:18:27.395Z,0
2016-05-09T01:18:37.411Z,0
2016-05-09T01:18:47.411Z,0
2016-05-09T01:18:57.411Z,0
2016-05-09T01:19:07.411Z,0
2016-05-09T01:19:17.413Z,0
2016-05-09T01:19:27.413Z,0
2016-05-09T01:19:37.428Z,0
2016-05-09T01:19:47.428Z,0
2016-05-09T01:19:57.428Z,0
2016-05-09T01:20:07.428Z,0
2016-05-09T01:20:17.431Z,0
2016-05-09T01:20:27.431Z,0
2016-05-09T01:20:37.431Z,0
2016-05-09T01:20:47.447Z,0
2016-05-09T01:20:57.447Z,0
2016-05-09T01:21:07.447Z,0
2016-05-09T01:21:17.449Z,0
2016-05-09T01:21:27.449Z,0
2016-05-09T01:21:37.449Z,0
2016-05-09T01:21:47.449Z,0
2016-05-09T01:21:57.465Z,0
2016-05-09T01:22:07.465Z,0
2016-05-09T01:22:17.469Z,0
2016-05-09T01:22:27.469Z,0
2016-05-09T01:22:37.469Z,0
2016-05-09T01:22:47.484Z,0
2016-05-09T01:22:57.484Z,0
2016-05-09T01:23:07.484Z,0
2016-05-09T01:23:17.486Z,0
2016-05-09T01:23:27.486Z,0
2016-05-09T01:23:37.486Z,0
2016-05-09T01:23:47.486Z,0
2016-05-09T01:23:57.502Z,0
2016-05-09T01:24:07.502Z,0
2016-05-09T01:24:17.505Z,0
2016-05-09T01:24:27.505Z,0
2016-05-09T01:24:37.505Z,0
2016-05-09T01:24:47.505Z,0
2016-05-09T01:24:57.505Z,0
2016-05-09T01:25:07.505Z,0
2016-05-09T01:25:17.522Z,0
2016-05-09T01:25:27.522Z,0
2016-05-09T01:25:37.522Z,0
2016-05-09T01:25:47.522Z,0
2016-05-09T01:25:57.522Z,0
2016-05-09T01:26:07.522Z,0
2016-05-09T01:26:17.557Z,0
2016-05-09T01:26:27.541Z,0
2016-05-09T01:26:37.541Z,0
2016-05-09T01:26:47.557Z,0
2016-05-09T01:26:57.557Z,0
2016-05-09T01:27:07.541Z,0
2016-05-09T01:27:17.560Z,0
2016-05-09T01:27:27.560Z,0
2016-05-09T01:27:37.560Z,0
2016-05-09T01:27:47.560Z,0
2016-05-09T01:27:57.560Z,0
2016-05-09T01:28:07.560Z,0
2016-05-09T01:28:17.672Z,0
2016-05-09T01:28:27.578Z,0
2016-05-09T01:28:37.578Z,0
2016-05-09T01:28:47.906Z,0
2016-05-09T01:28:57.578Z,0
2016-05-09T01:29:08.016Z,0
2016-05-09T01:29:17.580Z,0
2016-05-09T01:29:27.596Z,0
2016-05-09T01:29:37.596Z,0
2016-05-09T01:29:47.596Z,0
2016-05-09T01:29:57.596Z,0
2016-05-09T01:30:07.596Z,0
2016-05-09T01:30:17.599Z,0
2016-05-09T01:30:27.599Z,0
2016-05-09T01:30:37.615Z,0
2016-05-09T01:30:47.615Z,0
2016-05-09T01:30:57.615Z,0
2016-05-09T01:31:07.615Z,0
2016-05-09T01:31:17.617Z,0
2016-05-09T01:31:27.617Z,0
2016-05-09T01:31:37.632Z,0
2016-05-09T01:31:47.632Z,0
2016-05-09T01:31:57.632Z,0
2016-05-09T01:32:07.632Z,0
2016-05-09T01:32:17.651Z,0
2016-05-09T01:32:27.635Z,0
2016-05-09T01:32:37.651Z,0
2016-05-09T01:32:47.651Z,0
2016-05-09T01:32:57.651Z,0
2016-05-09T01:33:07.651Z,0
2016-05-09T01:33:17.654Z,0
2016-05-09T01:33:27.654Z,0
2016-05-09T01:33:37.654Z,0
2016-05-09T01:33:47.685Z,0
2016-05-09T01:33:57.669Z,0
2016-05-09T01:34:07.701Z,0
2016-05-09T01:34:17.704Z,0
2016-05-09T01:34:27.672Z,0
2016-05-09T01:34:37.672Z,0
2016-05-09T01:34:47.672Z,0
2016-05-09T01:34:57.688Z,0
2016-05-09T01:35:07.688Z,0
2016-05-09T01:35:17.690Z,0
2016-05-09T01:35:27.690Z,0
2016-05-09T01:35:37.690Z,0
2016-05-09T01:35:47.690Z,0
2016-05-09T01:35:57.753Z,0
2016-05-09T01:36:07.706Z,0
2016-05-09T01:36:17.709Z,0
2016-05-09T01:36:27.709Z,0
2016-05-09T01:36:37.709Z,0
2016-05-09T01:36:47.709Z,0
2016-05-09T01:36:57.724Z,0
2016-05-09T01:37:07.724Z,0
2016-05-09T01:37:17.726Z,0
2016-05-09T01:37:27.726Z,0
2016-05-09T01:37:37.726Z,0
2016-05-09T01:37:47.726Z,0
2016-05-09T01:37:57.742Z,0
2016-05-09T01:38:07.726Z,0
2016-05-09T01:38:17.746Z,0
2016-05-09T01:38:27.746Z,0
2016-05-09T01:38:37.746Z,0
2016-05-09T01:38:47.746Z,0
2016-05-09T01:38:57.746Z,0
2016-05-09T01:39:07.746Z,0
2016-05-09T01:39:17.749Z,0
2016-05-09T01:39:27.765Z,0
2016-05-09T01:39:37.765Z,0
2016-05-09T01:39:47.765Z,0
2016-05-09T01:39:57.765Z,0
2016-05-09T01:40:07.765Z,0
2016-05-09T01:40:17.767Z,0
2016-05-09T01:40:27.782Z,0
2016-05-09T01:40:37.782Z,0
2016-05-09T01:40:47.782Z,0
2016-05-09T01:40:57.782Z,0
2016-05-09T01:41:07.782Z,0
2016-05-09T01:41:17.785Z,0
2016-05-09T01:41:27.801Z,0
2016-05-09T01:41:37.801Z,0
2016-05-09T01:41:47.801Z,0
2016-05-09T01:41:57.801Z,0
2016-05-09T01:42:07.801Z,0
2016-05-09T01:42:17.803Z,0
2016-05-09T01:42:27.803Z,0
2016-05-09T01:42:37.818Z,0
2016-05-09T01:42:47.818Z,0
2016-05-09T01:42:57.850Z,0
2016-05-09T01:43:07.818Z,0
2016-05-09T01:43:17.820Z,0
2016-05-09T01:43:27.820Z,0
2016-05-09T01:43:37.820Z,0
2016-05-09T01:43:47.836Z,0
2016-05-09T01:43:57.867Z,0
2016-05-09T01:44:08.055Z,0
2016-05-09T01:44:18.090Z,0
2016-05-09T01:44:27.871Z,0
2016-05-09T01:44:37.856Z,0
2016-05-09T01:44:47.840Z,0
2016-05-09T01:44:57.856Z,0
2016-05-09T01:45:07.856Z,0
2016-05-09T01:45:17.858Z,0
2016-05-09T01:45:27.858Z,0
2016-05-09T01:45:37.858Z,0
2016-05-09T01:45:47.858Z,0
2016-05-09T01:45:57.858Z,0
2016-05-09T01:46:07.873Z,0
2016-05-09T01:46:17.876Z,0
2016-05-09T01:46:27.876Z,0
2016-05-09T01:46:37.876Z,0
2016-05-09T01:46:47.876Z,0
2016-05-09T01:46:57.892Z,0
2016-05-09T01:47:07.892Z,0
2016-05-09T01:47:17.895Z,0
2016-05-09T01:47:27.895Z,0
2016-05-09T01:47:37.895Z,0
2016-05-09T01:47:48.145Z,0
2016-05-09T01:47:57.895Z,0
2016-05-09T01:48:07.911Z,0
2016-05-09T01:48:17.913Z,0
2016-05-09T01:48:27.913Z,0
2016-05-09T01:48:37.913Z,0
2016-05-09T01:48:47.913Z,0
2016-05-09T01:48:57.913Z,0
2016-05-09T01:49:07.913Z,0
2016-05-09T01:49:17.931Z,0
2016-05-09T11:19:53.971Z,5426
2016-05-09T11:20:03.987Z,5446
2016-05-09T11:20:14.002Z,5452
2016-05-09T11:20:23.987Z,5462
2016-05-09T11:20:33.987Z,5480
2016-05-09T11:20:44.036Z,5496
2016-05-09T11:20:54.036Z,5502
2016-05-09T11:21:03.989Z,5524
2016-05-09T11:21:14.004Z,5524
2016-05-09T11:21:24.004Z,5546
2016-05-09T11:21:34.020Z,5576
2016-05-09T11:21:44.023Z,5582
2016-05-09T11:21:54.007Z,5596
2016-05-09T11:22:04.023Z,5592
2016-05-09T11:22:14.023Z,5588
2016-05-09T11:22:24.117Z,5586
2016-05-09T11:22:34.039Z,5596
2016-05-09T11:22:44.042Z,5598
2016-05-09T11:22:54.042Z,5598
2016-05-09T11:23:04.042Z,5594
2016-05-09T11:23:14.042Z,5596
2016-05-09T11:23:24.057Z,5594
2016-05-09T11:23:34.042Z,5592
2016-05-09T11:23:44.045Z,5596
2016-05-09T11:23:54.045Z,5596
2016-05-09T11:24:04.045Z,5590
2016-05-09T11:24:14.060Z,5598
2016-05-09T11:24:24.060Z,5610
2016-05-09T11:24:34.060Z,5622
2016-05-09T11:24:44.063Z,5630
2016-05-09T11:24:54.063Z,5646
2016-05-09T11:25:04.720Z,5658
2016-05-09T11:25:14.079Z,5654
2016-05-09T11:25:24.079Z,5648
2016-05-09T11:25:34.079Z,5648
2016-05-09T11:25:44.081Z,5632
2016-05-09T11:25:54.081Z,5634
2016-05-09T11:26:04.097Z,5628
2016-05-09T11:26:14.097Z,5632
2016-05-09T11:26:24.097Z,5612
2016-05-09T11:26:34.097Z,5612
2016-05-09T11:26:44.100Z,5624
2016-05-09T11:26:54.100Z,5626
2016-05-09T11:27:04.115Z,5646
2016-05-09T11:27:14.115Z,5642
2016-05-09T11:27:24.115Z,5662
2016-05-09T11:27:34.115Z,5678
2016-05-09T11:27:44.118Z,5690
2016-05-09T11:27:54.134Z,5694
2016-05-09T11:28:04.134Z,5696
2016-05-09T11:28:14.134Z,5690
2016-05-09T11:28:24.134Z,5676
2016-05-09T11:28:34.134Z,5666
2016-05-09T11:28:44.136Z,5674
2016-05-09T11:28:54.151Z,5672
2016-05-09T11:29:04.151Z,5670
2016-05-09T11:29:14.151Z,5694
2016-05-09T11:29:24.151Z,5684
2016-05-09T11:29:34.151Z,5664
2016-05-09T11:29:44.153Z,5658
2016-05-09T11:29:54.169Z,5664
2016-05-09T11:30:04.169Z,5682
2016-05-09T11:30:14.169Z,5706
2016-05-09T11:30:24.169Z,5742
2016-05-09T11:30:34.169Z,5764
2016-05-09T11:30:44.189Z,5776
2016-05-09T11:30:54.189Z,5780
2016-05-09T11:31:04.189Z,5778
2016-05-09T11:31:14.236Z,5786
2016-05-09T11:31:24.189Z,5788
2016-05-09T11:31:34.204Z,5774
2016-05-09T11:31:44.206Z,5768
2016-05-09T11:31:54.206Z,5760
2016-05-09T11:32:04.206Z,5754
2016-05-09T11:32:14.206Z,5754
2016-05-09T11:32:24.206Z,5748
2016-05-09T11:32:34.222Z,5742
2016-05-09T11:32:44.225Z,5724
2016-05-09T11:32:54.225Z,5704
2016-05-09T11:33:04.225Z,5678
2016-05-09T11:33:14.241Z,5648
2016-05-09T11:33:24.225Z,5624
2016-05-09T11:33:34.241Z,5604
2016-05-09T11:33:44.243Z,5586
2016-05-09T11:33:54.243Z,5574
2016-05-09T11:34:04.243Z,5572
2016-05-09T11:34:14.243Z,5572
2016-05-09T11:34:24.258Z,5578
2016-05-09T11:34:34.258Z,5598
2016-05-09T11:34:44.261Z,5594
2016-05-09T11:34:54.261Z,5586
2016-05-09T11:35:04.261Z,5590
2016-05-09T11:35:14.277Z,5586
2016-05-09T11:35:24.277Z,5584
2016-05-09T11:35:34.277Z,5586
2016-05-09T11:35:44.280Z,5588
2016-05-09T11:35:54.280Z,5606
2016-05-09T11:36:04.280Z,5614
2016-05-09T11:36:14.295Z,5638
2016-05-09T11:36:24.452Z,5666
2016-05-09T11:36:34.295Z,5684
2016-05-09T11:36:44.298Z,5694
2016-05-09T11:36:54.298Z,5698
2016-05-09T11:37:04.314Z,5708
2016-05-09T11:37:14.314Z,5710
2016-05-09T11:37:24.314Z,5718
2016-05-09T11:37:34.314Z,5728
2016-05-09T11:37:44.317Z,5742
2016-05-09T11:37:54.333Z,5742
2016-05-09T11:38:04.333Z,5768
2016-05-09T11:38:14.333Z,5780
2016-05-09T11:38:24.333Z,5796
2016-05-09T11:38:34.333Z,5806
2016-05-09T11:38:44.335Z,5810
2016-05-09T11:38:54.335Z,5816
2016-05-09T11:39:04.350Z,5820
2016-05-09T11:39:14.350Z,5830
2016-05-09T11:39:25.757Z,5834
2016-05-09T11:39:34.350Z,5838
2016-05-09T11:39:44.353Z,5848
2016-05-09T11:39:54.369Z,5864
2016-05-09T11:40:04.369Z,5880
2016-05-09T11:40:14.369Z,5898
2016-05-09T11:40:24.369Z,5912
2016-05-09T11:40:35.931Z,5898
2016-05-09T11:40:44.434Z,5882
2016-05-09T11:40:54.388Z,5866
2016-05-09T11:41:04.388Z,5864
2016-05-09T11:41:14.388Z,5866
2016-05-09T11:41:24.388Z,5874
2016-05-09T11:41:34.388Z,5894
2016-05-09T11:41:44.405Z,5922
2016-05-09T11:41:54.405Z,5936
2016-05-09T11:42:04.405Z,5942
2016-05-09T11:42:14.405Z,5946
2016-05-09T11:42:24.405Z,5948
2016-05-09T11:42:34.421Z,5960
2016-05-09T11:42:44.424Z,5984
2016-05-09T11:42:54.424Z,6000
2016-05-09T11:43:04.424Z,6012
2016-05-09T11:43:14.424Z,6026
2016-05-09T11:43:24.424Z,6030
2016-05-09T11:43:34.439Z,6026
2016-05-09T11:43:44.442Z,6016
2016-05-09T11:43:54.599Z,6036
2016-05-09T11:44:04.442Z,6032
2016-05-09T11:44:14.442Z,6034
2016-05-09T11:44:24.458Z,6052
2016-05-09T11:44:34.802Z,6074
2016-05-09T11:44:44.460Z,6084
2016-05-09T11:44:54.460Z,6094
2016-05-09T11:45:04.476Z,6120
2016-05-09T11:45:14.460Z,6134
2016-05-09T11:45:24.585Z,6136
2016-05-09T11:45:34.476Z,6124
2016-05-09T11:45:44.494Z,6130
2016-05-09T11:45:54.479Z,6148
2016-05-09T11:46:04.494Z,6144
2016-05-09T11:46:14.494Z,6148
2016-05-09T11:46:24.494Z,6132
2016-05-09T11:46:34.494Z,6124
2016-05-09T11:46:44.512Z,6108
2016-05-09T11:46:54.512Z,6108
2016-05-09T11:47:04.512Z,6098
2016-05-09T11:47:14.606Z,6104
2016-05-09T11:47:24.512Z,6112
2016-05-09T11:47:34.528Z,6104
2016-05-09T11:47:44.516Z,6078
2016-05-09T11:47:54.532Z,6070
2016-05-09T11:48:04.532Z,6072
2016-05-09T11:48:14.532Z,6072
2016-05-09T11:48:24.532Z,6074
2016-05-09T11:48:34.532Z,6070
2016-05-09T11:48:44.549Z,6066
2016-05-09T11:48:54.784Z,6054
2016-05-09T11:49:04.549Z,6048
2016-05-09T11:49:14.549Z,6050
2016-05-09T11:49:24.549Z,6070
2016-05-09T11:49:34.549Z,6108
2016-05-09T11:49:44.957Z,6144
2016-05-09T11:49:54.567Z,6182
2016-05-09T11:50:04.567Z,6216
2016-05-09T11:50:14.567Z,6242
2016-05-09T11:50:24.567Z,6262
2016-05-09T11:50:34.582Z,6282
2016-05-09T11:50:44.585Z,6310
2016-05-09T11:50:54.585Z,6322
2016-05-09T11:51:04.585Z,6336
2016-05-09T11:51:14.617Z,6360
2016-05-09T11:51:25.695Z,6366
2016-05-09T11:51:34.601Z,6366
2016-05-09T11:51:44.604Z,6372
2016-05-09T11:51:54.604Z,6380
2016-05-09T11:52:04.604Z,6392
2016-05-09T11:52:14.604Z,6414
2016-05-09T11:52:24.620Z,6406
2016-05-09T11:52:34.620Z,6420
2016-05-09T11:52:44.623Z,6426
2016-05-09T11:52:54.623Z,6416
2016-05-09T11:53:04.623Z,6426
2016-05-09T11:53:14.623Z,6426
2016-05-09T11:53:24.638Z,6418
2016-05-09T11:53:34.638Z,6414
2016-05-09T11:53:44.641Z,6436
2016-05-09T11:53:54.641Z,6466
2016-05-09T11:54:04.657Z,6474
2016-05-09T11:54:14.657Z,6476
2016-05-09T11:54:24.657Z,6480
2016-05-09T11:54:34.657Z,6496